WEATHER DATA

YESTERDAY
Time Temp. Dewp. Hum. Wind dir Wind speed Wind gust Bar. 1h Prec. 24h Prec.
00:01 18 17 94 233 0.3 1.1 1010.4 0.0000 0.0000
00:11 18 17 94 237 0.3 1.1 1010.4 0.0000 0.0000
00:31 17.9 16.9 94 225 0.3 0.8 1010.3 0.0000 0.0000
00:41 17.9 16.9 94 225 0.3 1.1 1010.3 0.0000 0.0000
00:51 18 17 94 45 0.3 0.8 1010.2 0.0000 0.0000
01:02 18 17 94 45 0.3 0.8 1010.1 0.0000 0.0000
01:12 17.9 16.9 94 231 0.3 1.1 1010.2 0.0000 0.0000
01:20 18 17 94 0.3 1.1 1010.4 0.0000 0.0000
01:31 18 17 94 225 0.3 0.8 1010.2 0.0000 0.0000
01:42 17.9 16.9 94 90 0.3 0.8 1010.1 0.0000 0.0000
01:52 17.8 16.8 94 225 0.3 0.8 1010.1 0.0000 0.0000
02:02 17.8 16.8 94 234 0.3 1.7 1010.1 0.0000 0.0000
02:12 17.7 16.7 94 225 0.3 0.8 1010.2 0.0000 0.0000
02:22 17.7 16.7 94 198 0.3 1.1 1010.1 0.0000 0.0000
02:32 17.7 16.7 94 45 0.3 1.1 1010.1 0.0000 0.0000
02:42 17.7 16.7 94 180 0.3 0.8 1010.1 0.0000 0.0000
02:53 17.5 16.5 94 161 0.3 1.7 1010 0.0000 0.0000
03:03 17.4 16.4 94 186 0.8 2.5 1009.8 0.0000 0.0000
03:13 17.2 16.2 94 168 0.8 2.8 1009.7 0.0000 0.0000
03:23 17.1 16.1 94 183 0.3 1.9 1009.7 0.0000 0.0000
03:33 17 16 94 183 0.8 2.5 1009.8 0.0000 0.0000
03:43 16.9 15.9 94 135 0.3 2.5 1009.8 0.0000 0.0000
03:53 16.9 15.9 94 158 0.8 2.5 1009.7 0.0000 0.0000
04:04 16.8 15.8 94 167 0.8 3.3 1009.7 0.0000 0.0000
04:14 16.8 15.8 94 180 0.3 1.9 1009.6 0.0000 0.0000
04:23 16.7 15.7 94 155 0.3 1.9 1009.6 0.0000 0.0000
04:33 16.6 15.6 94 156 0.3 2.5 1009.7 0.0000 0.0000
04:44 16.6 15.6 94 144 0.3 1.7 1009.7 0.0000 0.0000
04:54 16.5 15.7 95 230 0.8 1.9 1009.7 0.0000 0.0000
05:04 16.4 15.6 95 158 0.8 1.9 1009.7 0.0000 0.0000
05:14 16.2 15.4 95 172 0.8 1.9 1009.7 0.0000 0.0000
05:24 16.1 15.3 95 180 0.8 2.5 1009.7 0.0000 0.0000
05:34 16 15.2 95 167 0.8 1.9 1009.6 0.0000 0.0000
05:44 15.8 15 95 191 0.3 1.7 1009.6 0.0000 0.0000
05:55 15.8 15 95 198 0.3 1.1 1009.7 0.0000 0.0000
06:05 15.7 14.9 95 180 0.3 1.1 1009.6 0.0000 0.0000
06:14 15.6 14.8 95 186 0.3 1.7 1009.7 0.0000 0.0000
06:25 15.6 14.8 95 135 0.3 1.1 1009.7 0.0000 0.0000
06:35 15.5 14.7 95 135 0.3 2.5 1009.6 0.0000 0.0000
06:45 15.4 14.6 95 168 0.3 1.7 1009.8 0.0000 0.0000
06:55 15.4 14.6 95 144 0.3 1.1 1010 0.0000 0.0000
07:06 15.4 14.6 95 135 0.3 1.7 1010.2 0.0000 0.0000
07:15 15.5 14.7 95 144 0.3 1.7 1010.1 0.0000 0.0000
07:25 15.5 14.7 95 153 0.3 1.1 1010.1 0.0000 0.0000
07:35 15.5 14.5 94 165 0.3 1.7 1010 0.0000 0.0000
07:46 15.5 14.7 95 182 0.3 1.7 1010.2 0.0000 0.0000
07:56 15.5 14.5 94 183 0.3 1.9 1010.1 0.0000 0.0000
08:05 15.5 14.5 94 176 0.3 1.9 1010.4 0.0000 0.0000
08:16 15.5 14.7 95 200 0.3 1.7 1010.4 0.0000 0.0000
08:26 15.5 14.7 95 158 0.3 2.5 1010.5 0.0000 0.0000
08:36 15.5 14.7 95 135 0.3 1.7 1010.5 0.0000 0.0000
08:46 15.6 14.8 95 146 0.3 1.9 1010.6 0.0000 0.0000
08:57 15.5 14.5 94 182 0.3 1.9 1010.6 0.0000 0.0000
09:06 15.6 14.8 95 156 0.3 1.7 1010.5 0.0000 0.0000
09:16 15.6 14.8 95 168 0.3 1.9 1010.4 0.0000 0.0000
09:27 15.7 14.9 95 156 0.3 1.7 1010.3 0.0000 0.0000
09:37 15.7 14.9 95 225 0.8 3.3 1010.3 0.0000 0.0000
09:47 15.8 15 95 183 0.8 1.9 1010.3 0.0000 0.0000
10:02 15.9 15.1 95 202 0.8 2.5 1010.4 0.0000 0.0000
10:12 16 15.2 95 227 1.1 2.8 1010.3 0.0000 0.0000
10:19 16 15.2 95 225 1.7 5.8 1010.1 0.0000 0.0000
10:28 16.1 15.3 95 225 5.3 11.4 1010.1 0.0000 0.0000
10:38 16.1 15.3 95 230 7.8 10.6 1010 0.0000 0.0000
10:49 16.2 15.4 95 234 6.9 15.6 1010 0.0000 0.0000
10:59 16.3 15.5 95 230 8.3 12.8 1009.9 0.0000 0.0000
11:08 16.4 15.6 95 233 7.5 11.9 1010 0.0000 0.0000
11:16 16.4 15.6 95 226 7.5 16.9 1009.9 0.0000 0.0000
11:26 16.5 15.7 95 224 7.5 13.1 1009.7 0.0000 0.0000
11:36 16.7 15.9 95 230 6.9 12.2 1009.7 0.0000 0.0000
11:47 16.8 16 95 235 5.3 10.6 1009.7 0.0000 0.0000
11:56 16.9 16.1 95 237 6.7 11.1 1009.7 0.0000 0.0000
12:06 17 16.2 95 235 6.1 10.6 1009.6 0.0000 0.0000
12:17 17.2 16.4 95 235 6.1 10.3 1009.6 0.0000 0.0000
12:27 17.4 16.6 95 235 4.4 9.4 1009.5 0.0000 0.0000
12:37 17.5 16.5 94 235 4.2 9.4 1009.2 0.0000 0.0000
12:47 17.6 16.6 94 235 5 8.6 1009.3 0.0000 0.0000
12:57 17.7 16.7 94 222 4.4 7.5 1009.2 0.0000 0.0000
13:07 17.8 16.8 94 254 1.1 5.3 1009.2 0.0000 0.0000
13:17 17.9 16.9 94 228 4.2 8.3 1009.2 0.0000 0.0000
13:29 18.1 17.1 94 233 2.5 8.3 1009.1 0.0000 0.0000
13:39 18.3 17.3 94 176 0.8 2.8 1009.1 0.0000 0.0000
13:52 18.6 17.6 94 216 0.8 5.8 1009 0.0000 0.0000
14:02 18.8 17.8 94 239 2.8 6.9 1008.9 0.0000 0.0000
14:13 19.1 18.1 94 135 1.1 3.3 1008.8 0.0000 0.0000
14:21 19.2 18.2 94 213 1.1 5 1008.7 0.0000 0.0000
14:32 19.4 18.4 94 231 4.2 8.9 1008.6 0.0000 0.0000
14:42 19.6 18.4 93 233 5 7.8 1008.6 0.0000 0.0000
14:51 19.7 18.5 93 90 1.1 4.2 1008.5 0.0000 0.0000
15:01 19.8 18.6 93 168 0.8 2.5 1008.4 0.0000 0.0000
15:12 20 18.8 93 210 0.8 2.5 1008.4 0.0000 0.0000
15:22 20 18.8 93 163 0.8 3.6 1008.4 0.0000 0.0000
15:32 20.1 18.9 93 206 0.8 2.5 1008.3 0.0000 0.0000
15:42 20.1 18.9 93 153 0.8 2.8 1008.1 0.0000 0.0000
15:52 20.2 19 93 183 1.1 3.3 1008 0.0000 0.0000
16:02 20.3 19.1 93 155 0.8 2.5 1008 0.0000 0.0000
16:12 20.4 19.4 94 180 0.8 1.9 1007.9 0.0000 0.0000
16:22 20.5 19.5 94 239 3.6 7.5 1007.8 0.0000 0.0000
16:31 20.6 19.6 94 209 1.1 3.3 1007.8 0.0000 0.0000
16:41 20.6 19.6 94 181 0.8 2.5 1007.7 0.0000 0.0000
16:52 20.6 19.6 94 181 1.1 2.5 1007.6 0.0000 0.0000
17:02 20.7 19.5 93 174 1.1 2.5 1007.6 0.0000 0.0000
17:12 20.6 19.3 92 198 0.8 2.8 1007.7 0.0000 0.0000
17:22 20.6 18.9 90 205 0.8 2.5 1007.6 0.0000 0.0000
17:32 20.7 18.8 89 157 0.8 2.8 1007.6 0.0000 0.0000
17:42 20.7 17.9 84 131 1.1 4.2 1007.7 0.0000 0.0000
17:50 20.7 16.7 78 225 1.1 6.1 1007.8 0.0000 0.0000
17:57 20.8 16.4 76 239 5.8 10.6 1007.8 0.0000 0.0000
18:07 20.9 16.5 76 234 4.4 8.9 1007.6 0.0000 0.0000
18:17 21 16 73 225 1.1 7.8 1007.6 0.0000 0.0000
18:27 21.1 15.6 71 180 1.1 4.4 1007.7 0.0000 0.0000
18:38 21 15.3 70 195 1.1 3.6 1007.5 0.0000 0.0000
18:48 20.9 15.4 71 181 0.8 2.5 1007.4 0.0000 0.0000
18:57 20.8 15.6 72 203 1.1 2.8 1007.3 0.0000 0.0000
19:08 20.7 15.9 74 147 1.1 3.6 1007.4 0.0000 0.0000
19:18 20.5 15.3 72 212 1.1 3.3 1007.4 0.0000 0.0000
19:28 20.4 15.6 74 209 0.8 2.5 1007.4 0.0000 0.0000
19:38 20.4 15.2 72 206 1.1 2.5 1007.5 0.0000 0.0000
19:49 20.3 15.5 74 212 1.1 2.8 1007.3 0.0000 0.0000
19:58 20.2 15.4 74 205 0.8 1.9 1007.3 0.0000 0.0000
20:08 20.1 15.5 75 165 1.1 3.3 1007.3 0.0000 0.0000
20:18 20 15.2 74 207 1.1 1.9 1007.2 0.0000 0.0000
20:29 19.9 14.7 72 203 0.8 1.9 1007.2 0.0000 0.0000
20:39 19.9 14.3 70 212 1.1 2.8 1007.2 0.0000 0.0000
20:49 19.8 14.4 71 212 0.8 1.9 1007.4 0.0000 0.0000
20:59 19.6 14.4 72 199 0.8 1.9 1007.4 0.0000 0.0000
21:09 19.5 14.1 71 205 1.1 1.9 1007.5 0.0000 0.0000
21:19 19.4 14 71 199 0.8 1.9 1007.5 0.0000 0.0000
21:29 19.3 13.7 70 195 0.8 2.5 1007.4 0.0000 0.0000
21:40 19.1 13.7 71 199 0.8 1.9 1007.5 0.0000 0.0000
21:49 19 13.6 71 201 0.8 1.7 1007.5 0.0000 0.0000
21:59 18.9 14.2 74 199 0.8 1.7 1007.6 0.0000 0.0000
22:10 18.7 14 74 203 0.8 1.7 1007.6 0.0000 0.0000
22:20 18.5 14.2 76 217 0.8 1.9 1007.7 0.0000 0.0000
22:30 18.3 14.2 77 214 0.8 1.9 1007.8 0.0000 0.0000
22:40 18.1 14.2 78 215 0.8 1.7 1007.8 0.0000 0.0000
22:50 17.9 14.2 79 212 0.8 1.7 1008 0.0000 0.0000
23:00 17.8 14.3 80 225 0.8 1.7 1008.1 0.0000 0.0000
23:10 17.6 14.3 81 218 0.3 1.7 1008.1 0.0000 0.0000
23:20 17.5 14.2 81 210 0.3 1.1 1008.1 0.0000 0.0000
23:31 17.5 14.2 81 203 0.3 1.1 1008 0.0000 0.0000
23:41 17.5 14 80 183 0.3 1.1 1007.9 0.0000 0.0000
23:50 17.4 13.9 80 191 0.3 1.1 1007.9 0.0000 0.0000

DAY STATISTIC

2020-08-03
TEMPERATURE
AVERAGE
18.0
HIGH
21.1
18:27
LOW
15.4
06:45
PRESSURE
AVERAGE
1009.0
HIGH
1010.6
08:46
LOW
1007.2
20:18
DEWPOINT
AVERAGE
16.0
HIGH
19.6
16:31
LOW
13.6
21:49
HUMIDITY
AVERAGE
89
HIGH
95
04:54
LOW
70
18:38
WIND SPEED
AVERAGE
1.5
HIGH
8.3
10:59
WIND GUST
AVERAGE
3.6
HIGH
16.9
11:16
WIND DIRECTION
PREVAILING
SW
43%
N
0.0
NE
2.1
E
1.4
SE
14.1
S
38.0
SW
43.0
W
0.7
NW
0.0
PRECIPITATION
RAIN HOUR
0.0
RAIN DAY
0.0
TEMPERATURE (°C)
LOW
15.4
HIGH
21.1
AVERAGE
18.0
PRESSURE (hpa)
LOW
1007.2
HIGH
1010.6
AVERAGE
1009.0
DEVICE